createdAt,value
2022-09-26T00:00:25.701Z,0.00
2022-09-26T00:01:25.899Z,0.00
2022-09-26T00:02:26.030Z,0.00
2022-09-26T00:03:25.174Z,0.00
2022-09-26T00:04:30.382Z,0.00
2022-09-26T00:05:26.675Z,0.00
2022-09-26T00:06:25.828Z,0.00
2022-09-26T00:07:25.154Z,0.00
2022-09-26T00:08:25.366Z,0.00
2022-09-26T00:09:25.594Z,0.04
2022-09-26T00:10:25.805Z,0.00
2022-09-26T00:11:24.995Z,0.00
2022-09-26T00:12:25.146Z,0.00
2022-09-26T00:14:25.582Z,0.00
2022-09-26T00:15:25.803Z,0.00
2022-09-26T00:16:25.017Z,0.00
2022-09-26T00:17:25.222Z,0.00
2022-09-26T00:18:25.362Z,0.00
2022-09-26T00:20:25.736Z,0.00
2022-09-26T00:21:24.896Z,0.00
2022-09-26T00:22:25.084Z,0.00
2022-09-26T00:23:25.294Z,0.04
2022-09-26T00:24:25.467Z,0.00
2022-09-26T00:25:25.655Z,0.00
2022-09-26T00:26:24.819Z,0.00
2022-09-26T00:27:24.985Z,0.00
2022-09-26T00:28:25.187Z,0.00
2022-09-26T00:29:25.585Z,0.00
2022-09-26T00:30:25.649Z,0.00
2022-09-26T00:31:24.840Z,0.00
2022-09-26T00:32:24.994Z,0.00
2022-09-26T00:33:25.206Z,0.00
2022-09-26T00:34:25.447Z,0.00
2022-09-26T00:35:24.635Z,0.00
2022-09-26T00:36:37.084Z,0.00
2022-09-26T00:37:26.036Z,0.00
2022-09-26T00:38:25.324Z,0.00
2022-09-26T00:39:25.436Z,0.00
2022-09-26T00:40:24.649Z,0.00
2022-09-26T00:41:24.847Z,0.00
2022-09-26T00:42:24.960Z,0.00
2022-09-26T00:43:25.167Z,0.00
2022-09-26T00:44:25.384Z,0.00
2022-09-26T00:45:24.547Z,0.00
2022-09-26T00:46:24.788Z,0.00
2022-09-26T00:47:24.981Z,0.00
2022-09-26T00:48:25.174Z,0.00
2022-09-26T00:49:25.391Z,0.00
2022-09-26T00:50:24.558Z,0.00
2022-09-26T00:51:24.778Z,0.00
2022-09-26T00:52:24.994Z,0.00
2022-09-26T00:53:25.215Z,0.00
2022-09-26T00:54:24.385Z,0.00
2022-09-26T00:55:24.412Z,0.00
2022-09-26T00:56:25.617Z,0.00
2022-09-26T00:57:24.914Z,0.00
2022-09-26T00:58:25.170Z,0.00
2022-09-26T00:59:24.310Z,0.00
2022-09-26T01:00:24.559Z,0.00
2022-09-26T01:03:24.229Z,0.00
2022-09-26T01:05:24.501Z,0.00
2022-09-26T01:06:25.677Z,0.00
2022-09-26T01:07:24.918Z,0.00
2022-09-26T01:08:25.130Z,0.00
2022-09-26T01:09:24.297Z,0.00
2022-09-26T01:10:24.608Z,0.00
2022-09-26T01:11:24.726Z,0.00
2022-09-26T01:12:24.917Z,0.00
2022-09-26T01:13:24.079Z,0.00
2022-09-26T01:14:24.299Z,0.00
2022-09-26T01:15:24.510Z,0.00
2022-09-26T01:16:24.804Z,0.00
2022-09-26T01:17:24.911Z,0.00
2022-09-26T01:18:24.088Z,0.00
2022-09-26T01:19:24.319Z,0.00
2022-09-26T01:20:24.530Z,0.00
2022-09-26T01:21:24.777Z,0.00
2022-09-26T01:22:23.959Z,0.00
2022-09-26T01:23:24.190Z,0.00
2022-09-26T01:24:24.393Z,0.00
2022-09-26T01:25:24.634Z,0.00
2022-09-26T01:26:24.850Z,0.00
2022-09-26T01:27:24.187Z,0.00
2022-09-26T01:28:24.265Z,0.00
2022-09-26T01:30:24.833Z,0.00
2022-09-26T01:31:25.071Z,0.00
2022-09-26T01:32:24.169Z,0.00
2022-09-26T01:33:24.643Z,0.00
2022-09-26T01:34:24.657Z,0.00
2022-09-26T01:35:23.860Z,0.00
2022-09-26T01:36:24.101Z,0.00
2022-09-26T01:37:25.288Z,0.00
2022-09-26T01:39:23.875Z,0.00
2022-09-26T01:40:24.028Z,0.00
2022-09-26T01:41:24.211Z,0.00
2022-09-26T01:42:24.441Z,0.00
2022-09-26T01:43:24.704Z,0.00
2022-09-26T01:44:24.540Z,0.00
2022-09-26T01:45:24.148Z,0.04
2022-09-26T01:47:24.211Z,0.00
2022-09-26T01:48:24.423Z,0.00
2022-09-26T01:49:24.661Z,0.00
2022-09-26T01:50:23.850Z,0.00
2022-09-26T01:51:24.072Z,0.00
2022-09-26T01:52:24.298Z,0.00
2022-09-26T01:53:24.520Z,0.00
2022-09-26T01:54:23.701Z,0.00
2022-09-26T01:55:23.673Z,0.00
2022-09-26T01:56:23.880Z,0.00
2022-09-26T01:57:24.109Z,0.00
2022-09-26T01:58:24.362Z,0.00
2022-09-26T01:59:24.571Z,0.00
2022-09-26T02:00:23.765Z,0.00
2022-09-26T02:01:24.020Z,0.00
2022-09-26T02:02:24.277Z,0.00
2022-09-26T02:03:23.382Z,0.00
2022-09-26T02:04:23.613Z,0.00
2022-09-26T02:05:23.847Z,0.00
2022-09-26T02:06:24.263Z,0.00
2022-09-26T02:07:24.282Z,0.04
2022-09-26T02:08:23.486Z,0.00
2022-09-26T02:09:23.732Z,0.00
2022-09-26T02:10:23.933Z,0.00
2022-09-26T02:11:24.145Z,0.00
2022-09-26T02:13:23.550Z,0.00
2022-09-26T02:14:23.815Z,0.00
2022-09-26T02:15:24.028Z,0.00
2022-09-26T02:16:23.279Z,0.00
2022-09-26T02:17:23.449Z,0.00
2022-09-26T02:18:23.692Z,0.00
2022-09-26T02:19:23.873Z,0.00
2022-09-26T02:20:24.094Z,0.00
2022-09-26T02:21:24.315Z,0.00
2022-09-26T02:24:23.984Z,0.00
2022-09-26T02:25:23.157Z,0.00
2022-09-26T02:26:24.333Z,0.00
2022-09-26T02:27:23.593Z,0.00
2022-09-26T02:28:23.825Z,0.00
2022-09-26T02:29:24.133Z,0.00
2022-09-26T02:30:23.248Z,0.00
2022-09-26T02:31:23.535Z,0.00
2022-09-26T02:32:23.715Z,0.00
2022-09-26T02:33:23.944Z,0.00
2022-09-26T02:34:23.143Z,0.04
2022-09-26T02:35:24.101Z,0.00
2022-09-26T02:36:23.587Z,0.00
2022-09-26T02:37:23.796Z,0.00
2022-09-26T02:38:24.028Z,0.00
2022-09-26T02:39:23.205Z,0.00
2022-09-26T02:40:23.457Z,0.00
2022-09-26T02:41:23.734Z,0.04
2022-09-26T02:42:22.855Z,0.00
2022-09-26T02:43:23.055Z,0.00
2022-09-26T02:44:23.262Z,0.00
2022-09-26T02:45:23.523Z,0.00
2022-09-26T02:46:23.761Z,0.00
2022-09-26T02:47:22.934Z,0.00
2022-09-26T02:48:23.080Z,0.00
2022-09-26T02:49:23.287Z,0.00
2022-09-26T02:50:23.527Z,0.00
2022-09-26T02:51:23.755Z,0.00
2022-09-26T02:52:22.955Z,0.00
2022-09-26T02:53:23.197Z,0.00
2022-09-26T02:54:23.445Z,0.00
2022-09-26T02:55:23.676Z,0.00
2022-09-26T02:56:22.858Z,0.00
2022-09-26T02:57:23.107Z,0.00
2022-09-26T02:58:23.370Z,0.00
2022-09-26T02:59:23.565Z,0.00
2022-09-26T03:00:22.749Z,0.00
2022-09-26T03:01:23.018Z,0.00
2022-09-26T03:02:23.167Z,0.00
2022-09-26T03:03:23.418Z,0.00
2022-09-26T03:04:22.620Z,0.00
2022-09-26T03:05:22.764Z,0.00
2022-09-26T03:06:22.969Z,0.00
2022-09-26T03:07:23.187Z,0.00
2022-09-26T03:08:23.426Z,0.00
2022-09-26T03:09:23.657Z,0.00
2022-09-26T03:10:22.809Z,0.00
2022-09-26T03:11:22.989Z,0.00
2022-09-26T03:12:23.207Z,0.00
2022-09-26T03:13:23.412Z,0.00
2022-09-26T03:14:22.589Z,0.00
2022-09-26T03:15:22.862Z,0.00
2022-09-26T03:16:23.053Z,0.00
2022-09-26T03:17:23.240Z,0.00
2022-09-26T03:18:22.398Z,0.00
2022-09-26T03:19:22.618Z,0.00
2022-09-26T03:20:22.842Z,0.00
2022-09-26T03:21:23.104Z,0.00
2022-09-26T03:22:23.251Z,0.00
2022-09-26T03:23:22.411Z,0.00
2022-09-26T03:24:22.645Z,0.00
2022-09-26T03:25:22.849Z,0.00
2022-09-26T03:26:23.105Z,0.00
2022-09-26T03:27:23.381Z,0.00
2022-09-26T03:28:22.490Z,0.00
2022-09-26T03:29:22.689Z,0.00
2022-09-26T03:30:22.910Z,0.00
2022-09-26T03:32:22.301Z,0.00
2022-09-26T03:33:22.599Z,0.00
2022-09-26T03:34:22.731Z,0.00
2022-09-26T03:35:22.983Z,0.00
2022-09-26T03:36:22.149Z,0.00
2022-09-26T03:37:22.395Z,0.00
2022-09-26T03:38:22.628Z,0.00
2022-09-26T03:39:22.969Z,0.00
2022-09-26T03:40:23.109Z,0.00
2022-09-26T03:41:22.262Z,0.00
2022-09-26T03:42:22.485Z,0.00
2022-09-26T03:43:22.711Z,0.00
2022-09-26T03:44:22.970Z,0.00
2022-09-26T03:45:22.196Z,0.00
2022-09-26T03:46:22.387Z,0.00
2022-09-26T03:47:22.627Z,0.00
2022-09-26T03:48:22.839Z,0.00
2022-09-26T03:49:22.019Z,0.00
2022-09-26T03:50:22.341Z,0.00
2022-09-26T03:51:22.471Z,0.00
2022-09-26T03:52:22.696Z,0.00
2022-09-26T03:53:21.867Z,0.00
2022-09-26T03:54:22.103Z,0.00
2022-09-26T03:55:22.330Z,0.00
2022-09-26T03:56:22.547Z,0.00
2022-09-26T03:57:22.753Z,0.00
2022-09-26T03:58:21.951Z,0.00
2022-09-26T03:59:22.176Z,0.00
2022-09-26T04:01:22.681Z,0.00
2022-09-26T04:02:22.196Z,0.00
2022-09-26T04:03:22.269Z,0.00
2022-09-26T04:04:22.473Z,0.00
2022-09-26T04:05:22.668Z,0.00
2022-09-26T04:06:21.828Z,0.00
2022-09-26T04:07:22.049Z,0.00
2022-09-26T04:08:22.203Z,0.00
2022-09-26T04:09:22.740Z,0.00
2022-09-26T04:10:22.594Z,0.00
2022-09-26T04:11:21.765Z,0.14
2022-09-26T04:12:21.962Z,0.00
2022-09-26T04:13:49.545Z,0.00
2022-09-26T04:14:30.551Z,0.00
2022-09-26T04:15:21.555Z,0.00
2022-09-26T04:16:21.769Z,0.00
2022-09-26T04:17:21.954Z,0.00
2022-09-26T04:18:22.122Z,0.00
2022-09-26T04:19:22.376Z,0.00
2022-09-26T04:20:21.511Z,0.00
2022-09-26T04:21:21.693Z,0.00
2022-09-26T04:22:21.903Z,0.00
2022-09-26T04:23:22.079Z,0.00
2022-09-26T04:24:22.284Z,0.00
2022-09-26T04:25:21.486Z,0.00
2022-09-26T04:26:23.669Z,0.00
2022-09-26T04:27:21.844Z,0.00
2022-09-26T04:28:22.040Z,0.05
2022-09-26T04:29:22.254Z,0.00
2022-09-26T04:30:21.395Z,0.00
2022-09-26T04:31:21.811Z,0.00
2022-09-26T04:32:21.835Z,0.05
2022-09-26T04:33:22.035Z,0.00
2022-09-26T04:34:26.880Z,0.00
2022-09-26T04:35:22.409Z,0.00
2022-09-26T04:36:21.629Z,0.00
2022-09-26T04:37:21.875Z,0.00
2022-09-26T04:38:22.080Z,0.01
2022-09-26T04:39:21.257Z,0.01
2022-09-26T04:40:21.541Z,0.01
2022-09-26T04:41:21.705Z,0.02
2022-09-26T04:42:21.926Z,0.01
2022-09-26T04:43:22.151Z,0.02
2022-09-26T04:44:21.314Z,0.02
2022-09-26T04:45:21.590Z,0.02
2022-09-26T04:46:24.541Z,0.03
2022-09-26T04:47:23.041Z,0.04
2022-09-26T04:48:21.177Z,0.04
2022-09-26T04:49:21.383Z,0.06
2022-09-26T04:50:21.598Z,0.18
2022-09-26T04:51:21.813Z,0.09
2022-09-26T04:52:22.026Z,0.08
2022-09-26T04:53:21.342Z,0.11
2022-09-26T04:54:21.414Z,0.15
2022-09-26T04:55:21.646Z,0.18
2022-09-26T04:56:21.850Z,0.22
2022-09-26T04:57:22.188Z,0.25
2022-09-26T04:58:21.255Z,0.30
2022-09-26T04:59:21.550Z,0.33
2022-09-26T05:00:21.751Z,0.41
2022-09-26T05:01:21.983Z,0.50
2022-09-26T05:02:21.193Z,0.61
2022-09-26T05:03:21.367Z,0.65
2022-09-26T05:04:25.330Z,0.78
2022-09-26T05:05:22.795Z,0.90
2022-09-26T05:06:20.967Z,1.05
2022-09-26T05:07:21.178Z,1.23
2022-09-26T05:08:21.380Z,1.43
2022-09-26T05:09:21.619Z,1.65
2022-09-26T05:10:22.177Z,2.02
2022-09-26T05:11:21.039Z,2.48
2022-09-26T05:12:21.273Z,3.16
2022-09-26T05:13:21.505Z,4.20
2022-09-26T05:14:21.713Z,5.45
2022-09-26T05:15:20.935Z,6.74
2022-09-26T05:16:21.311Z,7.89
2022-09-26T05:17:21.416Z,9.00
2022-09-26T05:18:21.663Z,10.17
2022-09-26T05:19:20.893Z,11.32
2022-09-26T05:20:21.099Z,12.30
2022-09-26T05:21:21.393Z,13.13
2022-09-26T05:22:21.576Z,13.96
2022-09-26T05:23:21.847Z,14.72
2022-09-26T05:24:21.030Z,15.47
2022-09-26T05:25:21.288Z,16.09
2022-09-26T05:26:21.566Z,16.82
2022-09-26T05:27:20.795Z,17.75
2022-09-26T05:28:20.971Z,18.78
2022-09-26T05:29:21.220Z,20.01
2022-09-26T05:30:21.463Z,21.51
2022-09-26T05:31:21.763Z,23.13
2022-09-26T05:32:20.968Z,24.89
2022-09-26T05:33:21.140Z,27.00
2022-09-26T05:34:21.379Z,29.30
2022-09-26T05:35:20.573Z,32.32
2022-09-26T05:36:20.810Z,34.37
2022-09-26T05:37:21.073Z,36.06
2022-09-26T05:38:21.329Z,36.42
2022-09-26T05:39:21.519Z,37.77
2022-09-26T05:40:20.808Z,38.29
2022-09-26T05:41:20.977Z,37.59
2022-09-26T05:42:21.221Z,38.12
2022-09-26T05:43:21.539Z,40.68
2022-09-26T05:44:20.680Z,41.78
2022-09-26T05:45:20.909Z,41.73
2022-09-26T05:46:21.238Z,43.49
2022-09-26T05:47:21.428Z,47.13
2022-09-26T05:48:20.631Z,52.50
2022-09-26T05:49:20.937Z,59.35
2022-09-26T05:50:21.225Z,66.25
2022-09-26T05:51:20.339Z,71.66
2022-09-26T05:52:20.597Z,75.44
2022-09-26T05:53:20.821Z,77.97
2022-09-26T05:54:21.085Z,80.00
2022-09-26T05:55:21.310Z,81.95
2022-09-26T05:56:20.553Z,81.48
2022-09-26T05:57:20.786Z,81.18
2022-09-26T05:58:21.010Z,84.31
2022-09-26T05:59:21.251Z,87.54
2022-09-26T06:00:20.475Z,91.96
2022-09-26T06:01:20.785Z,101.58
2022-09-26T06:02:21.265Z,113.11
2022-09-26T06:03:21.175Z,125.33
2022-09-26T06:04:20.366Z,127.19
2022-09-26T06:05:20.615Z,119.40
2022-09-26T06:06:20.840Z,118.18
2022-09-26T06:07:21.157Z,122.04
2022-09-26T06:08:21.203Z,124.74
2022-09-26T06:09:20.466Z,122.35
2022-09-26T06:10:20.695Z,110.20
2022-09-26T06:11:21.093Z,102.26
2022-09-26T06:12:21.134Z,101.07
2022-09-26T06:13:20.305Z,101.44
2022-09-26T06:14:20.525Z,100.88
2022-09-26T06:15:20.732Z,100.72
2022-09-26T06:16:21.129Z,101.41
2022-09-26T06:17:20.181Z,101.79
2022-09-26T06:18:20.381Z,101.19
2022-09-26T06:19:22.968Z,100.60
2022-09-26T06:20:20.766Z,100.57
2022-09-26T06:21:19.944Z,101.71
2022-09-26T06:22:20.163Z,104.20
2022-09-26T06:23:20.392Z,106.94
2022-09-26T06:24:20.603Z,106.92
2022-09-26T06:25:20.775Z,105.53
2022-09-26T06:26:19.971Z,108.12
2022-09-26T06:27:20.174Z,111.95
2022-09-26T06:28:20.365Z,115.94
2022-09-26T06:29:20.611Z,119.78
2022-09-26T06:30:20.766Z,124.68
2022-09-26T06:31:20.021Z,131.07
2022-09-26T06:32:20.161Z,137.30
2022-09-26T06:33:20.395Z,141.55
2022-09-26T06:34:20.605Z,144.94
2022-09-26T06:35:20.876Z,148.68
2022-09-26T06:36:19.985Z,152.16
2022-09-26T06:37:20.195Z,156.25
2022-09-26T06:38:20.423Z,164.42
2022-09-26T06:39:20.649Z,169.32
2022-09-26T06:40:20.874Z,173.42
2022-09-26T06:41:20.048Z,177.35
2022-09-26T06:42:20.230Z,180.31
2022-09-26T06:43:20.447Z,181.96
2022-09-26T06:44:20.641Z,182.29
2022-09-26T06:45:19.814Z,181.29
2022-09-26T06:46:20.062Z,179.18
2022-09-26T06:47:20.462Z,178.32
2022-09-26T06:48:24.385Z,184.28
2022-09-26T06:49:19.651Z,189.49
2022-09-26T06:50:19.867Z,184.96
2022-09-26T06:51:20.193Z,191.63
2022-09-26T06:52:20.296Z,185.79
2022-09-26T06:53:20.560Z,182.03
2022-09-26T06:54:19.718Z,178.10
2022-09-26T06:55:19.940Z,174.08
2022-09-26T06:56:20.138Z,170.19
2022-09-26T06:57:20.373Z,168.91
2022-09-26T06:58:19.533Z,169.41
2022-09-26T06:59:19.881Z,171.67
2022-09-26T07:00:19.968Z,175.03
2022-09-26T07:01:20.318Z,179.60
2022-09-26T07:02:20.461Z,186.61
2022-09-26T07:03:19.572Z,193.95
2022-09-26T07:04:19.777Z,199.57
2022-09-26T07:05:20.026Z,205.95
2022-09-26T07:06:20.205Z,213.98
2022-09-26T07:07:19.389Z,219.90
2022-09-26T07:08:19.564Z,226.58
2022-09-26T07:09:19.985Z,232.51
2022-09-26T07:10:19.972Z,238.06
2022-09-26T07:11:56.142Z,244.22
2022-09-26T07:12:20.318Z,250.75
2022-09-26T07:13:19.526Z,255.40
2022-09-26T07:14:19.747Z,260.08
2022-09-26T07:15:19.923Z,265.30
2022-09-26T07:16:20.230Z,272.89
2022-09-26T07:17:19.335Z,276.60
2022-09-26T07:18:19.457Z,283.88
2022-09-26T07:19:19.648Z,288.69
2022-09-26T07:20:19.857Z,293.23
2022-09-26T07:21:20.052Z,299.31
2022-09-26T07:22:19.207Z,305.49
2022-09-26T07:23:19.428Z,312.84
2022-09-26T07:24:19.653Z,318.05
2022-09-26T07:25:19.858Z,319.78
2022-09-26T07:26:19.023Z,316.46
2022-09-26T07:27:19.262Z,314.26
2022-09-26T07:28:19.465Z,316.96
2022-09-26T07:29:19.688Z,325.57
2022-09-26T07:30:19.902Z,334.42
2022-09-26T07:31:20.149Z,345.63
2022-09-26T07:32:19.272Z,374.13
2022-09-26T07:33:20.540Z,382.09
2022-09-26T07:34:19.698Z,390.54
2022-09-26T07:35:19.897Z,401.44
2022-09-26T07:36:20.139Z,420.10
2022-09-26T07:37:19.267Z,447.08
2022-09-26T07:38:19.479Z,454.80
2022-09-26T07:39:20.228Z,449.57
2022-09-26T07:40:19.921Z,457.07
2022-09-26T07:41:19.073Z,486.98
2022-09-26T07:42:19.263Z,503.45
2022-09-26T07:43:20.673Z,528.65
2022-09-26T07:45:02.318Z,516.53
2022-09-26T07:45:28.809Z,502.49
2022-09-26T07:46:19.928Z,529.61
2022-09-26T07:47:19.095Z,498.26
2022-09-26T07:48:19.271Z,498.21
2022-09-26T07:49:19.452Z,508.56
2022-09-26T07:50:19.627Z,522.09
2022-09-26T07:51:20.011Z,537.61
2022-09-26T07:52:18.938Z,560.99
2022-09-26T07:53:19.103Z,677.84
2022-09-26T07:54:19.281Z,604.41
2022-09-26T07:55:19.439Z,765.27
2022-09-26T07:56:19.588Z,640.42
2022-09-26T07:57:19.837Z,526.46
2022-09-26T07:58:18.919Z,543.14
2022-09-26T07:59:19.131Z,525.52
2022-09-26T08:00:19.292Z,507.51
2022-09-26T08:01:19.493Z,500.96
2022-09-26T08:02:18.690Z,506.56
2022-09-26T08:03:19.321Z,501.84
2022-09-26T08:04:18.960Z,503.51
2022-09-26T08:05:19.123Z,515.76
2022-09-26T08:06:19.302Z,522.26
2022-09-26T08:07:19.492Z,535.09
2022-09-26T08:08:18.632Z,534.12
2022-09-26T08:09:18.887Z,522.87
2022-09-26T08:10:19.023Z,531.43
2022-09-26T08:11:19.231Z,521.14
2022-09-26T08:12:19.492Z,525.75
2022-09-26T08:13:18.540Z,515.54
2022-09-26T08:14:18.724Z,528.23
2022-09-26T08:15:19.031Z,536.77
2022-09-26T08:16:20.127Z,544.14
2022-09-26T08:17:19.327Z,551.67
2022-09-26T08:18:18.495Z,544.23
2022-09-26T08:19:18.667Z,556.47
2022-09-26T08:20:18.859Z,550.66
2022-09-26T08:21:19.086Z,550.75
2022-09-26T08:22:19.211Z,548.60
2022-09-26T08:23:19.411Z,541.18
2022-09-26T08:24:18.560Z,549.97
2022-09-26T08:25:19.721Z,550.66
2022-09-26T08:26:18.907Z,546.19
2022-09-26T08:27:19.139Z,545.36
2022-09-26T08:28:19.286Z,554.35
2022-09-26T08:29:18.397Z,573.77
2022-09-26T08:30:18.563Z,508.65
2022-09-26T08:31:18.873Z,484.40
2022-09-26T08:32:18.891Z,482.84
2022-09-26T08:33:19.136Z,479.91
2022-09-26T08:34:24.129Z,479.36
2022-09-26T08:35:19.353Z,492.29
2022-09-26T08:36:19.471Z,511.29
2022-09-26T08:37:18.695Z,483.40
2022-09-26T08:38:18.879Z,485.43
2022-09-26T08:39:21.028Z,468.37
2022-09-26T08:40:18.257Z,444.28
2022-09-26T08:41:18.365Z,419.56
2022-09-26T08:42:18.574Z,398.49
2022-09-26T08:43:18.712Z,384.58
2022-09-26T08:44:18.904Z,376.95
2022-09-26T08:45:19.224Z,368.76
2022-09-26T08:46:18.263Z,359.36
2022-09-26T08:47:18.395Z,333.42
2022-09-26T08:48:18.645Z,323.90
2022-09-26T08:49:18.793Z,315.89
2022-09-26T08:50:17.971Z,310.34
2022-09-26T08:51:18.857Z,307.85
2022-09-26T08:52:19.373Z,304.82
2022-09-26T08:53:18.574Z,302.35
2022-09-26T08:54:18.740Z,296.90
2022-09-26T08:55:18.927Z,299.88
2022-09-26T08:56:18.073Z,288.90
2022-09-26T08:57:18.304Z,282.59
2022-09-26T08:58:18.468Z,279.03
2022-09-26T08:59:18.657Z,277.61
2022-09-26T09:00:18.959Z,277.12
2022-09-26T09:01:18.033Z,276.79
2022-09-26T09:02:19.376Z,275.93
2022-09-26T09:03:18.420Z,273.59
2022-09-26T09:04:18.564Z,271.28
2022-09-26T09:05:18.765Z,267.38
2022-09-26T09:06:17.919Z,263.84
2022-09-26T09:07:19.173Z,262.12
2022-09-26T09:08:18.523Z,261.92
2022-09-26T09:09:21.626Z,261.46
2022-09-26T09:10:17.660Z,261.00
2022-09-26T09:11:17.882Z,258.19
2022-09-26T09:12:22.966Z,255.57
2022-09-26T09:13:19.267Z,254.89
2022-09-26T09:14:18.456Z,251.32
2022-09-26T09:15:26.308Z,246.10
2022-09-26T09:16:18.862Z,240.19
2022-09-26T09:17:20.130Z,233.35
2022-09-26T09:18:18.228Z,226.37
2022-09-26T09:19:18.487Z,222.44
2022-09-26T09:20:17.651Z,221.78
2022-09-26T09:21:17.784Z,222.78
2022-09-26T09:22:18.003Z,224.12
2022-09-26T09:23:18.195Z,224.43
2022-09-26T09:24:18.390Z,223.73
2022-09-26T09:25:18.665Z,223.16
2022-09-26T09:28:20.201Z,208.47
2022-09-26T09:29:19.523Z,205.07
2022-09-26T09:30:17.893Z,202.11
2022-09-26T09:31:17.813Z,198.90
2022-09-26T09:32:17.962Z,197.03
2022-09-26T09:33:18.132Z,198.12
2022-09-26T09:34:18.343Z,199.48
2022-09-26T09:35:17.532Z,201.38
2022-09-26T09:36:17.705Z,203.95
2022-09-26T09:37:17.915Z,210.21
2022-09-26T09:38:19.102Z,216.13
2022-09-26T09:39:18.273Z,221.34
2022-09-26T09:40:17.556Z,225.15
2022-09-26T09:41:17.588Z,229.92
2022-09-26T09:42:17.781Z,233.92
2022-09-26T09:43:17.979Z,237.41
2022-09-26T09:44:18.173Z,240.09
2022-09-26T09:45:18.365Z,242.53
2022-09-26T09:46:17.559Z,245.07
2022-09-26T09:47:17.740Z,247.26
2022-09-26T09:48:17.921Z,250.16
2022-09-26T09:49:18.193Z,257.82
2022-09-26T09:50:17.296Z,266.77
2022-09-26T09:51:17.488Z,271.71
2022-09-26T09:52:17.695Z,271.93
2022-09-26T09:53:17.892Z,265.89
2022-09-26T09:54:18.101Z,260.23
2022-09-26T09:55:17.634Z,255.94
2022-09-26T09:56:17.468Z,252.43
2022-09-26T09:57:17.693Z,248.65
2022-09-26T09:58:17.891Z,246.03
2022-09-26T09:59:17.098Z,246.27
2022-09-26T10:00:17.276Z,250.41
2022-09-26T10:01:17.492Z,258.20
2022-09-26T10:02:17.678Z,267.59
2022-09-26T10:03:17.939Z,268.95
2022-09-26T10:04:18.074Z,260.51
2022-09-26T10:05:17.233Z,248.16
2022-09-26T10:06:46.553Z,234.81
2022-09-26T10:07:18.666Z,225.23
2022-09-26T10:08:17.813Z,222.09
2022-09-26T10:09:38.805Z,223.84
2022-09-26T10:10:18.172Z,224.02
2022-09-26T10:11:17.404Z,221.34
2022-09-26T10:12:17.550Z,216.91
2022-09-26T10:13:17.930Z,213.60
2022-09-26T10:14:17.923Z,211.55
2022-09-26T10:15:17.078Z,207.97
2022-09-26T10:16:17.407Z,205.33
2022-09-26T10:17:17.445Z,204.41
2022-09-26T10:18:26.521Z,203.94
2022-09-26T10:19:17.843Z,204.37
2022-09-26T10:20:17.005Z,205.34
2022-09-26T10:21:17.167Z,206.14
2022-09-26T10:22:17.325Z,206.73
2022-09-26T10:23:17.566Z,205.91
2022-09-26T10:24:17.774Z,203.35
2022-09-26T10:25:16.906Z,201.35
2022-09-26T10:26:17.025Z,200.29
2022-09-26T10:27:17.247Z,199.86
2022-09-26T10:28:17.423Z,197.69
2022-09-26T10:29:17.700Z,195.33
2022-09-26T10:30:16.793Z,192.96
2022-09-26T10:31:17.077Z,190.55
2022-09-26T10:32:17.237Z,188.33
2022-09-26T10:33:17.405Z,186.88
2022-09-26T10:34:17.596Z,187.04
2022-09-26T10:35:19.588Z,188.26
2022-09-26T10:36:16.964Z,190.31
2022-09-26T10:37:17.225Z,193.25
2022-09-26T10:38:17.358Z,196.07
2022-09-26T10:39:16.482Z,197.74
2022-09-26T10:40:16.813Z,199.05
2022-09-26T10:41:16.873Z,201.16
2022-09-26T10:42:17.058Z,203.63
2022-09-26T10:43:17.276Z,206.96
2022-09-26T10:44:17.424Z,210.73
2022-09-26T10:45:16.605Z,215.85
2022-09-26T10:46:16.824Z,222.05
2022-09-26T10:47:16.966Z,229.67
2022-09-26T10:48:17.177Z,236.18
2022-09-26T10:49:17.397Z,239.02
2022-09-26T10:50:16.497Z,240.15
2022-09-26T10:51:16.692Z,241.82
2022-09-26T10:52:18.869Z,244.94
2022-09-26T10:53:17.067Z,247.34
2022-09-26T10:54:17.257Z,247.51
2022-09-26T10:55:17.475Z,246.74
2022-09-26T10:56:16.617Z,244.50
2022-09-26T10:57:16.787Z,243.41
2022-09-26T10:58:16.996Z,242.31
2022-09-26T10:59:17.198Z,243.28
2022-09-26T11:00:16.377Z,245.80
2022-09-26T11:01:16.643Z,248.53
2022-09-26T11:02:16.833Z,252.55
2022-09-26T11:03:17.075Z,255.77
2022-09-26T11:04:17.416Z,256.06
2022-09-26T11:05:16.364Z,253.96
2022-09-26T11:06:20.526Z,257.61
2022-09-26T11:07:23.008Z,263.36
2022-09-26T11:08:16.965Z,271.61
2022-09-26T11:09:16.145Z,280.79
2022-09-26T11:10:16.348Z,287.87
2022-09-26T11:11:16.560Z,296.82
2022-09-26T11:12:16.752Z,307.35
2022-09-26T11:13:16.963Z,311.34
2022-09-26T11:14:16.180Z,309.32
2022-09-26T11:15:16.324Z,303.98
2022-09-26T11:16:16.596Z,298.11
2022-09-26T11:17:16.707Z,301.11
2022-09-26T11:18:16.916Z,302.44
2022-09-26T11:19:16.230Z,306.07
2022-09-26T11:20:16.375Z,317.33
2022-09-26T11:21:28.246Z,324.66
2022-09-26T11:22:17.653Z,328.17
2022-09-26T11:23:16.856Z,341.35
2022-09-26T11:28:18.829Z,391.94
2022-09-26T11:34:10.043Z,396.39
2022-09-26T11:35:09.258Z,394.86
2022-09-26T11:36:09.412Z,390.86
2022-09-26T11:37:09.625Z,382.02
2022-09-26T11:38:09.808Z,381.71
2022-09-26T11:39:11.035Z,386.46
2022-09-26T11:40:10.058Z,389.99
2022-09-26T11:41:09.306Z,391.10
2022-09-26T11:42:09.429Z,391.22
2022-09-26T11:43:09.614Z,392.28
2022-09-26T11:44:09.830Z,394.09
2022-09-26T11:45:09.945Z,399.41
2022-09-26T11:46:09.119Z,405.88
2022-09-26T11:47:09.242Z,412.61
2022-09-26T11:48:09.387Z,417.76
2022-09-26T11:49:09.522Z,421.38
2022-09-26T11:50:09.714Z,424.22
2022-09-26T11:51:09.855Z,424.37
2022-09-26T11:52:08.953Z,420.84
2022-09-26T11:53:09.131Z,414.10
2022-09-26T11:54:09.337Z,405.96
2022-09-26T11:55:09.421Z,398.46
2022-09-26T11:56:09.564Z,391.47
2022-09-26T11:57:10.679Z,385.68
2022-09-26T11:58:08.874Z,382.57
2022-09-26T11:59:09.203Z,380.03
2022-09-26T12:00:09.240Z,378.06
2022-09-26T12:01:09.371Z,376.40
2022-09-26T12:02:09.555Z,373.41
2022-09-26T12:03:08.788Z,353.15
2022-09-26T12:04:09.067Z,365.08
2022-09-26T12:05:09.119Z,344.59
2022-09-26T12:06:09.267Z,341.76
2022-09-26T12:07:09.428Z,340.60
2022-09-26T12:08:09.619Z,344.60
2022-09-26T12:09:08.741Z,369.43
2022-09-26T12:10:08.911Z,383.91
2022-09-26T12:11:09.083Z,396.22
2022-09-26T12:12:09.216Z,404.06
2022-09-26T12:13:09.347Z,410.59
2022-09-26T12:14:09.626Z,418.71
2022-09-26T12:15:08.643Z,427.19
2022-09-26T12:16:08.906Z,433.32
2022-09-26T12:17:09.046Z,437.57
2022-09-26T12:18:09.123Z,436.59
2022-09-26T12:19:14.148Z,431.94
2022-09-26T12:20:10.448Z,423.69
2022-09-26T12:21:08.537Z,416.89
2022-09-26T12:22:08.697Z,413.13
2022-09-26T12:23:09.260Z,408.15
2022-09-26T12:24:09.117Z,405.59
2022-09-26T12:25:09.160Z,405.32
2022-09-26T12:26:14.507Z,404.59
2022-09-26T12:27:08.443Z,404.24
2022-09-26T12:28:08.607Z,403.62
2022-09-26T12:29:09.299Z,403.04
2022-09-26T12:30:08.917Z,400.14
2022-09-26T12:31:09.100Z,394.83
2022-09-26T12:32:09.208Z,388.12
2022-09-26T12:33:09.404Z,384.17
2022-09-26T12:34:08.531Z,383.57
2022-09-26T12:35:08.731Z,385.04
2022-09-26T12:36:08.873Z,387.59
2022-09-26T12:37:09.045Z,391.29
2022-09-26T12:38:09.245Z,395.13
2022-09-26T12:39:08.369Z,400.08
2022-09-26T12:40:09.721Z,405.44
2022-09-26T12:41:08.736Z,412.02
2022-09-26T12:42:08.941Z,418.74
2022-09-26T12:43:09.112Z,425.14
2022-09-26T12:44:08.254Z,430.10
2022-09-26T12:45:09.493Z,435.36
2022-09-26T12:46:08.724Z,439.07
2022-09-26T12:47:09.229Z,440.55
2022-09-26T12:48:09.037Z,442.52
2022-09-26T12:49:08.143Z,447.20
2022-09-26T12:50:08.317Z,452.86
2022-09-26T12:51:08.515Z,455.17
2022-09-26T12:52:08.828Z,459.24
2022-09-26T12:53:08.861Z,465.07
2022-09-26T12:54:09.039Z,473.91
2022-09-26T12:55:08.167Z,482.49
2022-09-26T12:56:08.341Z,491.23
2022-09-26T12:57:09.749Z,507.67
2022-09-26T12:58:08.742Z,528.63
2022-09-26T12:59:08.925Z,661.40
2022-09-26T13:00:09.110Z,617.96
2022-09-26T13:01:08.219Z,727.68
2022-09-26T13:02:08.435Z,618.57
2022-09-26T13:03:08.933Z,585.12
2022-09-26T13:04:08.727Z,556.68
2022-09-26T13:05:09.966Z,537.43
2022-09-26T13:06:09.162Z,545.76
2022-09-26T13:07:19.025Z,485.52
2022-09-26T13:08:12.484Z,462.89
2022-09-26T13:09:08.601Z,446.00
2022-09-26T13:10:11.788Z,439.67
2022-09-26T13:11:07.902Z,439.41
2022-09-26T13:12:08.011Z,439.30